Tiempo atmosférico en la estación meteorológica de Antequera, Málaga (400 m.)



Fecha
DESCASC
Temp. máxima en grados centígrados (hora)
DESCASC
Temp. mínima en grados centígrados (hora)
DESCASC
Temp. media en grados centígrados
DESCASC
Racha de viento máxima en m/sg (hora)
DESCASC
Velocidad máxima media en intervalos de 10 minutos(hora)
DESCASC
Precipitaciones diarias en mm
DESCASC
Precipitaciones de 00:00 a 06:00 en mm
DESCASC
Precipitaciones de 06:00 a 12:00 en mm
DESCASC
Precipitaciones de 12:00 a 18:00 en mm
DESCASC
Precipitaciones de 18:00 a 24:00 en mm
DESCASC
30-11-2020 16.7 (14:30) 10.7 (07:10) 13.7 9.17 (15:20) 4.72 (15:40) 0 0 0 0 0
29-11-2020 15.4 (12:10) 10 (00:00) 12.7 9.17 (06:10) 4.44 (06:10) 0 0 0 0 0
28-11-2020 13.8 (16:20) 8.3 (00:00) 11.1 6.67 (12:10) 3.33 (12:10) 0.1 0.1 0 0 0
27-11-2020 11.2 (15:00) 7.5 (00:00) 9.3 5 (14:20) 1.94 (13:30) 1 0.9 0.1 0 0
26-11-2020 13 (00:40) 7.8 (00:00) 10.4 11.94 (04:20) 4.72 (01:20) 26.9 15.7 6.6 0.1 4.5
25-11-2020 16.2 (13:00) 9 (00:00) 12.6 11.11 (13:00) 5 (12:50) 12.3 0 0 1.4 10.9
24-11-2020 17.2 (14:40) 10.5 (00:00) 13.9 10 (04:20) 4.44 (04:20) 0 0 0 0 0
23-11-2020 15.8 (13:20) 10.2 (00:00) 13 11.11 (10:10) 5.83 (10:20) 0 0 0 0 0
22-11-2020 15.8 (14:10) 10.7 (00:00) 13.3 14.44 (03:00) 6.67 (03:00) 0 0 0 0 0
21-11-2020 17.2 (13:50) 12.9 (00:00) 15.1 14.44 (13:00) 6.67 (14:00) 0 0 0 0 0
20-11-2020 20.7 (16:00) 13.5 (00:00) 17.1 9.44 (03:00) 4.44 (03:00) 0 0 0 0 0
19-11-2020 19.2 (15:00) 13.1 (00:00) 16.2 10.56 (13:50) 5.56 (15:20) 0 0 0 0 0
18-11-2020 19.5 (14:00) 10.2 (00:00) 14.8 9.17 (15:00) 4.44 (15:00) 0.2 0.1 0.1 0 0
17-11-2020 23.5 (15:40) 8.8 (00:00) 16.2 3.89 (16:40) 1.67 (16:50) 0.2 0.1 0.1 0 0
16-11-2020 21.9 (15:50) 11.4 (00:00) 16.6 5.28 (14:30) 2.22 (14:10) 0 0 0 0 0
15-11-2020 23.5 (16:20) 10 (00:00) 16.8 3.33 (03:50) 1.67 (03:50) 0.1 0.1 0 0 0
14-11-2020 17.6 (15:30) 13.4 (00:00) 15.5 7.22 (02:10) 3.61 (02:10) 1.1 0 0.4 0.7 0
13-11-2020 20 (13:50) 13.7 (00:00) 16.8 8.33 (00:10) 3.89 (10:10) 0 0 0 0 0
12-11-2020 18.8 (14:50) 12.4 (00:00) 15.6 10.83 (11:10) 5.56 (20:50) 0 0 0 0 0
11-11-2020 18 (14:10) 13.1 (00:00) 15.6 10.56 (12:10) 5.56 (11:30) 0 0 0 0 0
10-11-2020 -- (--) -- (--) -- 4.44 (15:10) 2.22 (16:00) 0.1 0 0.1 0 0
09-11-2020 17.9 (16:30) 7.3 (00:00) 12.6 3.61 (14:30) 1.94 (20:30) 0.8 0 0.8 0 0
08-11-2020 19.8 (15:00) 7.2 (00:00) 13.5 8.33 (14:10) 4.17 (16:00) 0 0 0 0 0
07-11-2020 19.8 (14:00) 12.4 (00:00) 16.1 8.89 (00:20) 4.44 (00:20) 1.7 1.4 0.3 0 0
06-11-2020 25.3 (15:20) 13.1 (00:00) 19.2 13.61 (13:00) 6.67 (13:00) 1.7 0 0 0 1.7
05-11-2020 19.5 (14:30) 13.7 (00:00) 16.6 16.67 (04:10) 6.94 (04:30) 55.6 24.2 31.2 0.2 0
04-11-2020 17.5 (13:50) 13.4 (00:00) 15.4 13.61 (22:00) 5.83 (22:00) 5.1 0 0.7 4.3 0.1
03-11-2020 24.4 (14:40) 7.3 (00:00) 15.8 4.72 (16:30) 1.94 (16:50) 0.8 0 0.8 0 0
02-11-2020 26.2 (14:40) 7.6 (00:00) 16.9 7.5 (12:40) 3.89 (13:20) 0 0 0 0 0

Gráficas

Temp. máximas Temp. mínimas Temp. medias Precipitaciones Rachas de viento máximas Velocidades máximas media en intervalos de 10 minutos

Datos horarios

Fecha y hora oficial Temperatura (ºC) Velocidad del viento (km/h) Dirección del viento Racha (km/h) Dirección de racha Precipitación (mm) Presión (hPa) Tendencia (hPa) Humedad (%)
2020-12-01 23:00:00 9.4 0 Calma 5 Oeste 0 970.5 -- 87
2020-12-01 22:00:00 10.3 2 Oeste 5 Oeste 0 970.4 -- 83
2020-12-01 21:00:00 11 0 Calma -- -- 0 970.2 -- 81
2020-12-01 20:00:00 12.5 0 Calma 9 Noroeste 0 970.3 -- 74
2020-12-01 19:00:00 13.5 4 Noroeste 11 Noroeste 0 970.4 -- 68
2020-12-01 18:00:00 14.9 0 Calma 11 Norte 0 970.2 -- 59
2020-12-01 17:00:00 16.2 0 Calma 12 Nordeste 0 970.1 -- 53
2020-12-01 16:00:00 16.4 0 Calma 12 Oeste 0 970.6 -- 52
2020-12-01 15:00:00 16.1 0 Calma 11 Oeste 0 971.3 -- 53
2020-12-01 14:00:00 16.1 0 Calma 10 Este 0 972 -- 59
2020-12-01 13:00:00 14.9 0 Calma 7 Este 0 972.9 -- 63
2020-12-01 12:00:00 12.4 0 Calma 4 Este 0 973.8 -- 75
2020-12-01 11:00:00 9.8 0 Calma 7 Este 0 974.1 -- 87
2020-12-01 10:00:00 8.3 0 Calma 4 Este 0 974.1 -- 93
2020-12-01 09:00:00 6.3 0 Calma -- -- 0 973.8 -- 92
2020-12-01 08:00:00 7.1 0 Calma -- -- 0 973.7 -- 92
2020-12-01 07:00:00 6.9 0 Calma 7 Nordeste 0 973.5 -- 92
2020-12-01 06:00:00 7.4 0 Calma 0 Calma 0 973.2 -- 92
2020-12-01 05:00:00 8.1 0 Calma 8 Norte 0 973.3 -- 91
2020-12-01 04:00:00 9 0 Calma 5 Nordeste 0 973.5 -- 89
2020-12-01 03:00:00 9.7 0 Calma 13 Nordeste 0 973.7 -- 88
2020-12-01 02:00:00 10.1 8 Nordeste 12 Nordeste 0 973.4 -- 87
2020-12-01 01:00:00 12.5 0 Calma 9 Sudeste 0 973.6 -- 80
2020-12-01 00:00:00 12.6 0 Calma 8 Sur 0 973.5 -- 79
2020-11-30 23:00:00 13.1 0 Calma 4 Sudeste 0 973.2 -- 76
2020-11-30 22:00:00 13.6 5 Sudeste 18 Sur 0 972.9 -- 74
2020-11-30 21:00:00 14 10 Sur 32 Sudeste 0 972.5 -- 71
2020-11-30 20:00:00 13.8 13 Sur 29 Sudeste 0 971.9 -- 75
2020-11-30 19:00:00 13.6 10 Sudeste 23 Sudeste 0 971.5 -- 75
2020-11-30 18:00:00 14.2 9 Sudeste 26 Sudeste 0 970.9 -- 68
2020-11-30 17:00:00 15.1 5 Sur 24 Sur 0 970.8 -- 63
2020-11-30 16:00:00 15.9 13 Sudeste 33 Sudeste 0 970.5 -- 58
2020-11-30 15:00:00 16.4 9 Sudeste 31 Sur 0 970.5 -- 54
2020-11-30 14:00:00 16.1 12 Sudeste 31 Sudeste 0 970.4 -- 54
2020-11-30 13:00:00 15.7 13 Sudeste 30 Sur 0 970.7 -- 57
2020-11-30 12:00:00 15.8 9 Sudeste 26 Sudeste 0 971.2 -- 59
2020-11-30 11:00:00 14.7 8 Sudeste 21 Sudeste 0 971.5 -- 63
2020-11-30 10:00:00 14 8 Sudeste 21 Sudeste 0 970.8 -- 65
2020-11-30 09:00:00 12.5 2 Sudeste 18 Sudeste 0 970.9 -- 71
2020-11-30 08:00:00 11.3 2 Este 14 Nordeste 0 970.3 -- 68
2020-11-30 07:00:00 11 0 Calma 21 Sudeste 0 969.7 -- 70
2020-11-30 06:00:00 11.8 2 Sudeste 19 Sudeste 0 969.3 -- 70
2020-11-30 05:00:00 12.3 6 Sudeste 26 Este 0 969.2 -- 69
2020-11-30 04:00:00 11.3 6 Este 15 Este 0 969.4 -- 80
2020-11-30 03:00:00 11.2 0 Calma 16 Este 0 969.3 -- 86
2020-11-30 02:00:00 11.6 10 Este 19 Sur 0 969.2 -- 77
2020-11-30 01:00:00 11.8 5 Sudeste 17 Este 0 969.2 -- 84
2020-11-30 00:00:00 11.7 11 Este 18 Este 0 969.2 -- 83
2020-11-29 23:00:00 12.3 0 Calma 20 Sudeste 0 969 -- 76
2020-11-29 22:00:00 12.2 12 Este 18 Este 0 968.3 -- 80
2020-11-29 21:00:00 13.1 2 Sudeste 20 Nordeste 0 968 -- 70
2020-11-29 20:00:00 13.1 5 Este 14 Este 0 967.6 -- 70
2020-11-29 19:00:00 13.4 6 Este 14 Sudeste 0 967 -- 70
2020-11-29 18:00:00 13.9 0 Calma 12 Sudeste 0 966.8 -- 69
2020-11-29 17:00:00 14.4 5 Sudeste 20 Sudeste 0 966.3 -- 68
2020-11-29 16:00:00 14.7 8 Sudeste 19 Sur 0 965.9 -- 67
2020-11-29 15:00:00 14.3 5 Sudeste 19 Sudeste 0 966 -- 71
2020-11-29 14:00:00 15.3 4 Sudeste 22 Sudeste 0 966.3 -- 65
2020-11-29 13:00:00 14.8 9 Sudeste 24 Sur 0 966.6 -- 66
2020-11-29 12:00:00 15.2 9 Sur 18 Sur 0 966.9 -- 65
2020-11-29 11:00:00 14.6 9 Sudeste 21 Sudeste 0 966.7 -- 65
2020-11-29 10:00:00 12.3 5 Este 10 Noroeste 0 966 -- 77
2020-11-29 09:00:00 11.3 0 Calma 2 Nordeste 0 965.2 -- 80
2020-11-29 08:00:00 11.7 0 Calma 12 Sur 0 964.7 -- 77
2020-11-29 07:00:00 12.1 0 Calma 33 Sudeste 0 964.5 -- 78
2020-11-29 06:00:00 12.2 14 Sudeste 30 Sudeste 0 963.5 -- 77
2020-11-29 05:00:00 12.3 5 Sur 21 Sudeste 0 964.1 -- 79
2020-11-29 04:00:00 12.2 6 Sur 20 Sur 0 964 -- 80
2020-11-29 03:00:00 11.5 0 Calma 10 Sur 0 963.5 -- 78
2020-11-29 02:00:00 10.1 0 Calma -- -- 0 963.5 -- 89
2020-11-29 01:00:00 10.1 0 Calma 6 Nordeste 0 963.5 -- 89
2020-11-29 00:00:00 10.2 0 Calma 13 Nordeste 0 963.6 -- 88
2020-11-28 23:00:00 10.2 9 Nordeste 13 Nordeste 0 963.2 -- 92
2020-11-28 22:00:00 10.4 4 Nordeste 9 Nordeste 0 963.3 -- 89
2020-11-28 21:00:00 10.9 2 Nordeste 6 Nordeste 0 962.7 -- 88
2020-11-28 20:00:00 11.4 4 Nordeste 9 Nordeste 0 962.6 -- 86
2020-11-28 19:00:00 11.6 4 Nordeste 12 Norte 0 962.1 -- 84
2020-11-28 18:00:00 12.2 3 Este 12 Este 0 961.5 -- 79
2020-11-28 17:00:00 13.2 0 Calma 11 Noroeste 0 961 -- 75
2020-11-28 16:00:00 13.5 3 Oeste 12 Oeste 0 960.6 -- 68
2020-11-28 15:00:00 13.4 6 Oeste 19 Oeste 0 960.2 -- 66
2020-11-28 14:00:00 13.5 5 Oeste 20 Noroeste 0 960.2 -- 69
2020-11-28 13:00:00 13.1 6 Noroeste 24 Oeste 0 960.4 -- 70
2020-11-28 12:00:00 12.2 11 Oeste 24 Oeste 0 960.7 -- 73
2020-11-28 11:00:00 10.9 0 Calma 4 Oeste 0 961.2 -- 84
2020-11-28 10:00:00 9.8 0 Calma -- -- 0 960.4 -- 89
2020-11-28 09:00:00 9.4 0 Calma -- -- 0 959.9 -- 89
2020-11-28 08:00:00 8.9 0 Calma -- -- 0 959.4 -- 91
2020-11-28 07:00:00 8.9 0 Calma -- -- 0 958.5 -- 92
2020-11-28 06:00:00 8.8 0 Calma -- -- 0 958 -- 93
2020-11-28 05:00:00 8.6 0 Calma -- -- 0 958 -- 93
2020-11-28 04:00:00 8.5 0 Calma -- -- 0 958.1 -- 93
2020-11-28 03:00:00 8.5 0 Calma -- -- 0 958.3 -- 93
2020-11-28 02:00:00 8.4 0 Calma -- -- 0.1 958.6 -- 93
2020-11-28 01:00:00 8.8 0 Calma -- -- 0 958.6 -- 89
2020-11-28 00:00:00 9 0 Calma -- -- 0 958.4 -- 89
2020-11-27 23:00:00 9.1 0 Calma -- -- 0 958.5 -- 88
2020-11-27 22:00:00 9.1 0 Calma -- -- 0 958.2 -- 83
2020-11-27 21:00:00 9 0 Calma -- -- 0 958.4 -- 82
2020-11-27 20:00:00 8.7 0 Calma 0 Calma 0 958 -- 83
2020-11-27 19:00:00 9.3 0 Calma 8 Nordeste 0 957.7 -- 80
2020-11-27 18:00:00 10.2 0 Calma 7 Noroeste 0 957.5 -- 74
2020-11-27 17:00:00 10.6 0 Calma 10 Noroeste 0 957.5 -- 70
2020-11-27 16:00:00 10.8 2 Noroeste 13 Oeste 0 957.4 -- 69
2020-11-27 15:00:00 10.7 6 Noroeste 18 Noroeste 0 957 -- 69
2020-11-27 14:00:00 10.7 6 Noroeste 17 Noroeste 0 957.6 -- 70
2020-11-27 13:00:00 10.7 2 Oeste 12 Norte 0 957.7 -- 72
2020-11-27 12:00:00 9.6 0 Calma 6 Noroeste 0 958.5 -- 80
2020-11-27 11:00:00 8.4 0 Calma 3 Sur 0 958.8 -- 88
2020-11-27 10:00:00 8.1 0 Calma 4 Sudoeste 0 958.7 -- 92
2020-11-27 09:00:00 7.7 0 Calma 4 Sudoeste 0 958.3 -- 93
2020-11-27 08:00:00 7.6 0 Calma -- -- 0 958 -- 93
2020-11-27 07:00:00 7.7 0 Calma 7 Noroeste 0.1 958 -- 92
2020-11-27 06:00:00 7.9 0 Calma 4 Nordeste 0.2 958 -- 91
2020-11-27 05:00:00 8 2 Nordeste 6 Nordeste 0.1 958.3 -- 90
2020-11-27 04:00:00 8.1 0 Calma 8 Nordeste 0.2 958.6 -- 92
2020-11-27 03:00:00 8.2 3 Noroeste 8 Noroeste 0 959 -- 92
2020-11-27 02:00:00 8.4 3 Este 8 Nordeste 0 959.2 -- 92
2020-11-27 01:00:00 8.2 5 Nordeste 8 Nordeste 0.4 959.8 -- 92
2020-11-27 00:00:00 8.2 4 Nordeste 12 Nordeste 0 960.3 -- 90
2020-11-26 23:00:00 8.3 0 Calma 13 Nordeste 0 960.6 -- 89
2020-11-26 22:00:00 8.3 10 Nordeste 18 Nordeste 2.5 960.6 -- 89
2020-11-26 21:00:00 8 0 Calma 23 Noroeste 2 960.9 -- 89
2020-11-26 20:00:00 9.9 0 Calma 15 Sudoeste 0 960.8 -- 77
2020-11-26 19:00:00 10 0 Calma 8 Sudeste 0 960 -- 77
2020-11-26 18:00:00 10.7 2 Sudeste 14 Sudeste 0 959.4 -- 71
2020-11-26 17:00:00 11.2 5 Sudeste 18 Sudeste 0 959.7 -- 69
2020-11-26 16:00:00 10.4 0 Calma 19 Sudoeste 0 959.7 -- 75
2020-11-26 15:00:00 10.5 3 Sudeste 21 Sudeste 0 959.7 -- 77
2020-11-26 14:00:00 10.7 9 Sudeste 22 Sudeste 0.1 960.2 -- 77
2020-11-26 13:00:00 10.4 5 Sudeste 14 Sudeste 0 960.2 -- 82
2020-11-26 12:00:00 9.8 3 Sudoeste 22 Este 0.2 960.9 -- 92
2020-11-26 11:00:00 9.6 11 Nordeste 23 Este 0.3 960.2 -- 93
2020-11-26 10:00:00 9.7 9 Este 19 Este 2 960.5 -- 91
2020-11-26 09:00:00 9.9 4 Sudeste 15 Este 2.4 960.3 -- 90
2020-11-26 08:00:00 10.1 0 Calma 29 Sudeste 1.4 960.2 -- 86
2020-11-26 07:00:00 10.7 10 Sudeste 31 Sur 0.3 960.1 -- 83
2020-11-26 06:00:00 10.5 4 Sur 32 Sudeste 0.4 960.1 -- 87
2020-11-26 05:00:00 10.7 13 Sudeste 43 Sudeste 1.9 960.4 -- 88
2020-11-26 04:00:00 10.9 5 Sudeste 30 Oeste 8.5 960.8 -- 88
2020-11-26 03:00:00 11.5 7 Noroeste 35 Sur 3.7 960.6 -- 88
2020-11-26 02:00:00 12.4 11 Sudeste 40 Sur 0.9 960.7 -- 86
2020-11-26 01:00:00 12.7 13 Sudeste 42 Sur 0.3 960.9 -- 84
2020-11-26 00:00:00 12.2 13 Sudeste 33 Sudeste 3.7 961.7 -- 84
2020-11-25 23:00:00 11.6 0 Calma 23 Sudeste 3.6 962.3 -- 91
2020-11-25 22:00:00 11.4 2 Sudeste 14 Sudeste 0.1 962.8 -- 89
2020-11-25 21:00:00 10.7 5 Sudeste 17 Este 0 962.9 -- 91
2020-11-25 20:00:00 10.5 4 Este 12 Nordeste 0.5 963.9 -- 92
2020-11-25 19:00:00 10 6 Este 13 Nordeste 3 964.3 -- 94
2020-11-25 18:00:00 -- 0 Calma -- -- -- -- -- --
2020-11-25 17:00:00 13.5 3 Sudeste 13 Sudeste 1 963.8 -- 85
2020-11-25 16:00:00 14.6 5 Sur 23 Sudeste 0 963.9 -- 74
2020-11-25 15:00:00 14.8 9 Sur 26 Sur 0 964.5 -- 73
2020-11-25 14:00:00 15.8 12 Sudeste 28 Sur 0 965.2 -- 64
2020-11-25 13:00:00 15.6 15 Sur 40 Sur 0 966.1 -- 64
2020-11-25 12:00:00 15.6 15 Sur 31 Sur 0 967.2 -- 66
2020-11-25 11:00:00 14.6 14 Sudeste 29 Sudeste 0 968 -- 71
2020-11-25 10:00:00 13.8 10 Sudeste 19 Sur 0 968.2 -- 78
2020-11-25 09:00:00 11.2 3 Sudeste 11 Sudeste 0 968.4 -- 89
2020-11-25 08:00:00 9.3 0 Calma 8 Noroeste 0 968.8 -- 92
2020-11-25 07:00:00 10.2 0 Calma 0 Calma 0 968.8 -- 90
2020-11-25 06:00:00 11.2 0 Calma 4 Oeste 0 969.1 -- 88
2020-11-25 05:00:00 11.1 0 Calma 4 Oeste 0 969.6 -- 87
2020-11-25 04:00:00 11.3 0 Calma 5 Oeste 0 969.9 -- 86
2020-11-25 03:00:00 11.7 0 Calma 6 Noroeste 0 970.3 -- 85
2020-11-25 02:00:00 11.3 0 Calma 5 Este 0 970.7 -- 82
2020-11-25 01:00:00 11.7 0 Calma 11 Sudoeste 0 971.2 -- 81
2020-11-25 00:00:00 12.5 3 Sudoeste 13 Sur 0 971.5 -- 79
2020-11-24 23:00:00 12 0 Calma 7 Oeste 0 971.5 -- 78
2020-11-24 22:00:00 11.8 2 Oeste 8 Sudoeste 0 971.7 -- 78
2020-11-24 21:00:00 12.3 0 Calma 4 Sudoeste 0 971.9 -- 74
2020-11-24 20:00:00 13.3 0 Calma 7 Sudeste 0 972.2 -- 70
2020-11-24 19:00:00 14 0 Calma 9 Sur 0 972.3 -- 67
2020-11-24 18:00:00 15 2 Sur 21 Sudeste 0 972.1 -- 62
2020-11-24 17:00:00 16.6 7 Sur 20 Sudeste 0 971.9 -- 56
2020-11-24 16:00:00 17 3 Sudeste 17 Sudeste 0 972 -- 53
2020-11-24 15:00:00 17.2 4 Sudeste 22 Sudeste 0 972.7 -- 53
2020-11-24 14:00:00 17 8 Sudeste 21 Sur 0 973.6 -- 54
2020-11-24 13:00:00 16.1 9 Sur 27 Sudeste 0 974.4 -- 55
2020-11-24 12:00:00 15.4 13 Sudeste 31 Sudeste 0 975.5 -- 60
2020-11-24 11:00:00 14.4 9 Sudeste 23 Sudeste 0 975.7 -- 63
2020-11-24 10:00:00 12.9 0 Calma 20 Sudeste 0 975.7 -- 68
2020-11-24 09:00:00 11.5 10 Sur 25 Sudeste 0 975.5 -- 75
2020-11-24 08:00:00 10.9 15 Sur 35 Sur 0 975.4 -- 75
2020-11-24 07:00:00 10.9 15 Sudeste 31 Sudeste 0 974.8 -- 75
2020-11-24 06:00:00 10.8 12 Sudeste 31 Sudeste 0 974.7 -- 76
2020-11-24 05:00:00 10.9 13 Sudeste 36 Sudeste 0 975.1 -- 74
2020-11-24 04:00:00 11.2 13 Sudeste 30 Sur 0 975.4 -- 71
2020-11-24 03:00:00 11.1 15 Sur 31 Sur 0 975.7 -- 72
2020-11-24 02:00:00 11.2 15 Sudeste 35 Sudeste 0 975.9 -- 72
2020-11-24 01:00:00 11.1 12 Sur 27 Sur 0 976.4 -- 71
2020-11-24 00:00:00 11.1 3 Sudeste 18 Sur 0 976.6 -- 70
2020-11-23 23:00:00 11 2 Sudeste 19 Sudeste 0 976.9 -- 70
2020-11-23 22:00:00 11.1 4 Sudeste 29 Sudeste 0 977.2 -- 71
2020-11-23 21:00:00 12 11 Sur 35 Sudeste 0 977.5 -- 68
2020-11-23 20:00:00 11.5 8 Sudeste 34 Sudeste 0 977.5 -- 69
2020-11-23 19:00:00 12.2 4 Sudeste 16 Sudeste 0 977.2 -- 65
2020-11-23 18:00:00 13 3 Sudeste 17 Sur 0 976.7 -- 59
2020-11-23 17:00:00 14.4 7 Sudeste 22 Sur 0 976.4 -- 51
2020-11-23 16:00:00 14.9 12 Sur 30 Sudeste 0 976.5 -- 50
2020-11-23 15:00:00 15.3 10 Sur 34 Sudeste 0 976.9 -- 46
2020-11-23 14:00:00 15.2 17 Sur 40 Sudeste 0 977 -- 48
2020-11-23 13:00:00 15.1 14 Sur 36 Sudeste 0 977.7 -- 51
2020-11-23 12:00:00 14.5 14 Sudeste 38 Sur 0 978.2 -- 57
2020-11-23 11:00:00 13.5 15 Sudeste 40 Sur 0 978.4 -- 62
2020-11-23 10:00:00 12.5 20 Sudeste 39 Sur 0 978.1 -- 65
2020-11-23 09:00:00 11.7 18 Sur 40 Sudeste 0 977.7 -- 68
2020-11-23 08:00:00 10.8 11 Sudeste 36 Sudeste 0 977.3 -- 69
2020-11-23 07:00:00 11 14 Sudeste 37 Sur 0 977.2 -- 69
2020-11-23 06:00:00 10.6 8 Sudeste 32 Sur 0 977.1 -- 70
2020-11-23 05:00:00 10.8 8 Sudeste 29 Sudeste 0 977 -- 71
2020-11-23 04:00:00 10.6 14 Sudeste 29 Sur 0 977.3 -- 74
2020-11-23 03:00:00 10.9 12 Sur 29 Sur 0 977.5 -- 71
2020-11-23 02:00:00 11.1 11 Sur 24 Sur 0 977.6 -- 71
2020-11-23 01:00:00 10.6 7 Sudeste 22 Sur 0 977.9 -- 71
2020-11-23 00:00:00 10.8 12 Sudeste 23 Sudeste 0 978.1 -- 69
2020-11-22 23:00:00 11.1 9 Sudeste 31 Este 0 978 -- 66
2020-11-22 22:00:00 11.7 10 Sudeste 27 Sudeste 0 977.8 -- 65
2020-11-22 21:00:00 11.8 17 Sudeste 32 Sudeste 0 977.6 -- 64
2020-11-22 20:00:00 11.7 13 Sur 24 Sudeste 0 977.3 -- 64
2020-11-22 19:00:00 12.3 8 Sur 26 Sur 0 977.3 -- 62
2020-11-22 18:00:00 13.2 13 Sudeste 30 Sudeste 0 977 -- 58
2020-11-22 17:00:00 14.4 10 Sudeste 31 Sur 0 976.9 -- 54
2020-11-22 16:00:00 15 12 Sudeste 33 Sur 0 976.8 -- 52
2020-11-22 15:00:00 15.2 19 Sudeste 34 Sur 0 976.9 -- 52
2020-11-22 14:00:00 15.3 15 Sur 36 Sur 0 977.6 -- 52
2020-11-22 13:00:00 15.7 18 Sudeste 40 Sur 0 978.2 -- 53
2020-11-22 12:00:00 15 19 Sudeste 43 Sudeste 0 978.7 -- 56
2020-11-22 11:00:00 14.1 17 Sudeste 41 Sudeste 0 978.9 -- 56
2020-11-22 10:00:00 13.1 18 Sudeste 37 Sudeste 0 978.7 -- 61
2020-11-22 09:00:00 12 14 Sudeste 33 Sudeste 0 978.1 -- 69
2020-11-22 08:00:00 11.5 20 Sudeste 37 Sudeste 0 977.7 -- 72
2020-11-22 07:00:00 11.4 14 Sudeste 36 Sur 0 977.7 -- 71
2020-11-22 06:00:00 11.8 18 Sudeste 41 Sur 0 977.5 -- 70
2020-11-22 05:00:00 11.9 13 Sudeste 40 Sudeste 0 977.2 -- 69
2020-11-22 04:00:00 12.5 21 Sur 47 Sudeste 0 977.2 -- 69
2020-11-22 03:00:00 12.8 24 Sudeste 52 Sudeste 0 977.3 -- 68
2020-11-22 02:00:00 12.9 22 Sudeste 49 Sur 0 977.6 -- 72
2020-11-22 01:00:00 13.1 19 Sudeste 46 Sudeste 0 977.7 -- 73
2020-11-22 00:00:00 13.2 16 Sudeste 44 Sudeste 0 977.7 -- 74
2020-11-21 23:00:00 13.3 14 Sudeste 37 Sudeste 0 977.7 -- 75
2020-11-21 22:00:00 13.4 14 Sudeste 40 Sur 0 977.8 -- 75
2020-11-21 21:00:00 13.1 20 Sudeste 39 Sudeste 0 977.7 -- 76
2020-11-21 20:00:00 13.4 21 Sudeste 39 Sudeste 0 977.2 -- 74
2020-11-21 19:00:00 13.8 19 Sudeste 41 Sur 0 976.6 -- 70
2020-11-21 18:00:00 14.4 21 Sur 39 Sur 0 976.5 -- 64
2020-11-21 17:00:00 15.6 22 Sudeste 44 Sur 0 976.1 -- 57
2020-11-21 16:00:00 16.3 21 Sudeste 45 Sudeste 0 976 -- 53
2020-11-21 15:00:00 16.7 20 Sudeste 45 Sudeste 0 975.9 -- 56
2020-11-21 14:00:00 16.5 24 Sudeste 46 Sudeste 0 976.4 -- 57
2020-11-21 13:00:00 16.6 21 Sudeste 52 Sur 0 976.7 -- 59
2020-11-21 12:00:00 16.2 22 Sudeste 42 Sudeste 0 977.3 -- 63
2020-11-21 11:00:00 15.8 19 Sudeste 45 Sudeste 0 977.3 -- 68
2020-11-21 10:00:00 15 19 Sudeste 45 Sudeste 0 976.6 -- 73
2020-11-21 09:00:00 14.1 18 Sur 41 Sudeste 0 976.3 -- 81
2020-11-21 08:00:00 13.9 17 Sudeste 45 Sudeste 0 975.8 -- 82
2020-11-21 07:00:00 14 19 Sudeste 40 Sudeste 0 975.2 -- 83
2020-11-21 06:00:00 13.8 21 Sur 42 Sudeste 0 975.2 -- 82
2020-11-21 05:00:00 14 19 Sur 39 Sur 0 975.1 -- 79
2020-11-21 04:00:00 14 9 Sudeste 38 Sudeste 0 975.7 -- 77
2020-11-21 03:00:00 14.1 13 Sudeste 35 Sur 0 975.6 -- 77
2020-11-21 02:00:00 14.1 15 Sur 42 Sur 0 975.6 -- 76
2020-11-21 01:00:00 14.1 13 Sur 31 Sur 0 976 -- 77
2020-11-21 00:00:00 14.1 14 Sur 33 Sudeste 0 976.3 -- 77
2020-11-20 23:00:00 14.2 9 Sur 31 Sur 0 976.5 -- 75
2020-11-20 22:00:00 13.9 0 Calma 17 Sur 0 976.1 -- 76
2020-11-20 21:00:00 14.7 2 Sur 14 Sur 0 976 -- 73
2020-11-20 20:00:00 15.5 5 Sur 16 Sudeste 0 976.1 -- 69
2020-11-20 19:00:00 16.4 4 Sur 13 Sudeste 0 975.7 -- 64
2020-11-20 18:00:00 18.1 2 Sur 15 Sudeste 0 975.6 -- 57
2020-11-20 17:00:00 20.1 6 Sur 16 Sudeste 0 975.5 -- 52
2020-11-20 16:00:00 20.6 2 Sudeste 12 Sudeste 0 975.2 -- 50
2020-11-20 15:00:00 20.1 6 Este 13 Sudeste 0 975.6 -- 50
2020-11-20 14:00:00 20.1 2 Sudeste 14 Este 0 976.5 -- 51
2020-11-20 13:00:00 19 5 Este 18 Sudeste 0 977.5 -- 53
2020-11-20 12:00:00 18.8 5 Sudeste 26 Sudeste 0 978.2 -- 57
2020-11-20 11:00:00 17.6 9 Sudeste 21 Sudeste 0 978.5 -- 61
2020-11-20 10:00:00 16.3 4 Sudeste 18 Sudeste 0 978.2 -- 68
2020-11-20 09:00:00 14.2 5 Sudeste 22 Sudeste 0 978.3 -- 75
2020-11-20 08:00:00 13.9 8 Sudeste 24 Sudeste 0 978.2 -- 75
2020-11-20 07:00:00 14.1 4 Sur 25 Sudeste 0 978.2 -- 74
2020-11-20 06:00:00 14.1 6 Sur 29 Sudeste 0 978.2 -- 74
2020-11-20 05:00:00 14 10 Sudeste 26 Sudeste 0 978.7 -- 75
2020-11-20 04:00:00 14 9 Sudeste 26 Sudeste 0 979.1 -- 75
2020-11-20 03:00:00 14.2 16 Sudeste 34 Sudeste 0 978.8 -- 74
2020-11-20 02:00:00 14.3 10 Sur 26 Sudeste 0 979.2 -- 72
2020-11-20 01:00:00 14.3 3 Sur 18 Sudeste 0 979.9 -- 74
2020-11-20 00:00:00 14.2 0 Calma 14 Sudoeste 0 980.3 -- 75
2020-11-19 23:00:00 14.2 0 Calma 19 Sur 0 980.5 -- 75
2020-11-19 22:00:00 14.7 7 Sur 33 Sudeste 0 980.4 -- 74
2020-11-19 21:00:00 14.8 14 Sudeste 29 Sur 0 980.1 -- 73
2020-11-19 20:00:00 15.1 0 Calma 18 Sudeste 0 979.8 -- 73
2020-11-19 19:00:00 15.3 0 Calma 18 Sur 0 979.6 -- 72
2020-11-19 18:00:00 15.8 8 Sur 30 Sur 0 979.5 -- 69
2020-11-19 17:00:00 17.1 15 Sudeste 33 Sudeste 0 979.1 -- 63
2020-11-19 16:00:00 18.3 13 Sur 35 Sur 0 978.8 -- 58
2020-11-19 15:00:00 18.7 18 Sudeste 35 Sur 0 978.8 -- 58
2020-11-19 14:00:00 18.7 17 Sudeste 38 Sudeste 0 979.1 -- 60
2020-11-19 13:00:00 18.1 14 Sudeste 37 Sur 0 979.6 -- 61
2020-11-19 12:00:00 17.5 11 Sudeste 25 Sudeste 0 980.2 -- 63
2020-11-19 11:00:00 16.7 10 Sudeste 28 Sudeste 0 980.2 -- 68
2020-11-19 10:00:00 15.7 11 Sudeste 23 Sudeste 0 979.9 -- 72
2020-11-19 09:00:00 14.6 9 Sur 27 Sur 0 979.1 -- 77
2020-11-19 08:00:00 13.8 7 Sur 22 Sudeste 0 978.5 -- 82
2020-11-19 07:00:00 13.5 0 Calma 7 Sudeste 0 978 -- 83
2020-11-19 06:00:00 13.6 0 Calma 18 Sudeste 0 977.5 -- 82
2020-11-19 05:00:00 14.7 2 Sudeste 17 Sudeste 0 977.2 -- 77
2020-11-19 04:00:00 14.2 0 Calma 31 Sudeste 0 977.5 -- 80
2020-11-19 03:00:00 14.7 7 Sur 23 Sur 0 977.4 -- 79
2020-11-19 02:00:00 14.3 3 Sudoeste 14 Sudeste 0 977.4 -- 81
2020-11-19 01:00:00 14.4 0 Calma 10 Oeste 0 977.9 -- 80
2020-11-19 00:00:00 14.1 0 Calma 14 Sudeste 0 977.9 -- 84
2020-11-18 23:00:00 14.1 0 Calma 18 Sur 0 978.2 -- 83
2020-11-18 22:00:00 14.2 0 Calma 5 Oeste 0 977.9 -- 86
2020-11-18 21:00:00 14.7 0 Calma 4 Sudeste 0 977.5 -- 83
2020-11-18 20:00:00 15.2 0 Calma 14 Sur 0 977.4 -- 79
2020-11-18 19:00:00 15.8 0 Calma 11 Sur 0 977.3 -- 73
2020-11-18 18:00:00 17.2 5 Sur 24 Sur 0 977 -- 67
2020-11-18 17:00:00 18.1 9 Sudeste 23 Sudeste 0 977 -- 62
2020-11-18 16:00:00 19 10 Sudeste 30 Sudeste 0 977 -- 57
2020-11-18 15:00:00 18.9 16 Sudeste 33 Sudeste 0 977.2 -- 57
2020-11-18 14:00:00 19.3 12 Sudeste 28 Sudeste 0 977.6 -- 57
2020-11-18 13:00:00 18.8 11 Sudeste 27 Sudeste 0 978.1 -- 59
2020-11-18 12:00:00 17.8 9 Sudeste 21 Sudeste 0 978.7 -- 63
2020-11-18 11:00:00 17.1 5 Sur 17 Sudeste 0 978.9 -- 71
2020-11-18 10:00:00 15.2 2 Sur 15 Sudeste 0 978.8 -- 82
2020-11-18 09:00:00 13.2 0 Calma 6 Sudoeste 0 978.7 -- 93
2020-11-18 08:00:00 11.7 0 Calma 3 Noroeste 0 978.3 -- 93
2020-11-18 07:00:00 10.3 0 Calma 4 Sudeste 0.1 977.9 -- 93
2020-11-18 06:00:00 12.8 0 Calma 7 Oeste 0 977.7 -- 93
2020-11-18 05:00:00 11.7 4 Oeste 7 Sudoeste 0 977.7 -- 93
2020-11-18 04:00:00 11.2 0 Calma -- -- 0.1 977.8 -- 93
2020-11-18 03:00:00 12.1 0 Calma 3 Sudoeste 0 978.1 -- 93
2020-11-18 02:00:00 11.8 0 Calma 6 Noroeste 0 978.2 -- 93
2020-11-18 01:00:00 12.5 0 Calma -- -- 0 978.4 -- 93
2020-11-18 00:00:00 13.8 0 Calma -- -- 0 978.8 -- 88
2020-11-17 23:00:00 14.8 0 Calma 0 Calma 0 978.8 -- 88
2020-11-17 22:00:00 15.1 0 Calma 5 Noroeste 0 978.5 -- 84
2020-11-17 21:00:00 15.8 0 Calma 5 Noroeste 0 978.3 -- 82
2020-11-17 20:00:00 17.2 0 Calma 3 Noroeste 0 978.1 -- 76
2020-11-17 19:00:00 18.4 0 Calma 5 Sudoeste 0 977.8 -- 68
2020-11-17 18:00:00 20.3 0 Calma 8 Sudoeste 0 977.4 -- 57
2020-11-17 17:00:00 22.6 2 Sur 14 Sur 0 977.1 -- 45
2020-11-17 16:00:00 22.9 2 Oeste 8 Oeste 0 976.7 -- 39
2020-11-17 15:00:00 23.3 0 Calma 8 Sur 0 976.8 -- 40
2020-11-17 14:00:00 22.5 0 Calma 7 Sur 0 977.3 -- 46
2020-11-17 13:00:00 20.1 0 Calma 0 Calma 0 978 -- 56
2020-11-17 12:00:00 18 0 Calma 6 Sudeste 0 978.5 -- 70
2020-11-17 11:00:00 13.7 0 Calma 4 Oeste 0 978.4 -- 93
2020-11-17 10:00:00 10.4 0 Calma 3 Oeste 0 978.6 -- 93
2020-11-17 09:00:00 9.3 0 Calma 6 Noroeste 0 978.3 -- 94
2020-11-17 08:00:00 9 0 Calma 5 Oeste 0.1 977.4 -- 94
2020-11-17 07:00:00 9.7 0 Calma 5 Norte 0 977.1 -- 94
2020-11-17 06:00:00 9.9 0 Calma 6 Nordeste 0 977.1 -- 94
2020-11-17 05:00:00 10.3 5 Nordeste 8 Este 0.1 976.8 -- 94
2020-11-17 04:00:00 11.5 0 Calma 5 Este 0 976.7 -- 94
2020-11-17 03:00:00 11.2 0 Calma 2 Oeste 0 976.6 -- 93
2020-11-17 02:00:00 11.7 0 Calma 4 Oeste 0 976.9 -- 93
2020-11-17 01:00:00 13.1 0 Calma -- -- 0 977.1 -- 92
2020-11-17 00:00:00 13.1 0 Calma 0 Calma 0 977.1 -- 91
2020-11-16 23:00:00 14.5 0 Calma 3 Oeste 0 977.2 -- 91
2020-11-16 22:00:00 15.3 0 Calma 3 Sudeste 0 977.1 -- 88
2020-11-16 21:00:00 16.3 0 Calma 6 Noroeste 0 976.6 -- 86
2020-11-16 20:00:00 17.4 0 Calma 8 Nordeste 0 976.1 -- 82
2020-11-16 19:00:00 18.2 0 Calma 7 Nordeste 0 975.7 -- 75
2020-11-16 18:00:00 19.5 0 Calma 15 Noroeste 0 975.2 -- 64
2020-11-16 17:00:00 21.2 4 Noroeste 17 Norte 0 974.9 -- 56
2020-11-16 16:00:00 21.7 5 Noroeste 17 Noroeste 0 974.5 -- 54
2020-11-16 15:00:00 21.8 5 Noroeste 19 Noroeste 0 974.4 -- 53
2020-11-16 14:00:00 21.3 4 Noroeste 15 Noroeste 0 975.1 -- 51
2020-11-16 13:00:00 20.6 2 Noroeste 15 Oeste 0 975.8 -- 58
2020-11-16 12:00:00 19.1 2 Nordeste 12 Nordeste 0 976.5 -- 63
2020-11-16 11:00:00 16.4 0 Calma 6 Este 0 976.3 -- 76
2020-11-16 10:00:00 13.3 0 Calma 4 Sudeste 0 975.9 -- 85
2020-11-16 09:00:00 12.1 0 Calma -- -- 0 975.7 -- 88
2020-11-16 08:00:00 11.7 0 Calma 12 Nordeste 0 975 -- 88
2020-11-16 07:00:00 11.8 0 Calma 10 Nordeste 0 974.6 -- 87
2020-11-16 06:00:00 12.7 0 Calma 0 Calma 0 974.5 -- 88
2020-11-16 05:00:00 12.5 0 Calma 12 Noroeste 0 974.7 -- 88
2020-11-16 04:00:00 13.9 0 Calma 5 Oeste 0 974.5 -- 86
2020-11-16 03:00:00 14.5 0 Calma 5 Oeste 0 974.2 -- 85
2020-11-16 02:00:00 15.9 0 Calma 8 Oeste 0 974.7 -- 78
2020-11-16 01:00:00 15.7 0 Calma 6 Oeste 0 974.7 -- 81
2020-11-16 00:00:00 16 0 Calma 4 Oeste 0 974.9 -- 81
2020-11-15 23:00:00 16.6 0 Calma 5 Oeste 0 975.2 -- 80
2020-11-15 22:00:00 17.1 0 Calma 6 Noroeste 0 975.3 -- 77
2020-11-15 21:00:00 18 0 Calma 5 Oeste 0 974.9 -- 73
2020-11-15 20:00:00 18.7 0 Calma 5 Oeste 0 974.6 -- 68
2020-11-15 19:00:00 19.6 0 Calma 6 Sur 0 974.2 -- 62
2020-11-15 18:00:00 21.1 3 Sur 9 Sur 0 973.6 -- 55
2020-11-15 17:00:00 23 0 Calma 11 Sudoeste 0 973.4 -- 48
2020-11-15 16:00:00 22.8 0 Calma 7 Oeste 0 973.3 -- 47
2020-11-15 15:00:00 22.2 0 Calma 6 Oeste 0 973.3 -- 51
2020-11-15 14:00:00 21.7 0 Calma 5 Sudoeste 0 973.4 -- 55
2020-11-15 13:00:00 19.6 0 Calma 8 Este 0 974.1 -- 64
2020-11-15 12:00:00 17.2 0 Calma 7 Este 0 974.9 -- 74
2020-11-15 11:00:00 13.9 0 Calma 8 Nordeste 0 975.1 -- 87
2020-11-15 10:00:00 11.6 0 Calma 4 Sudoeste 0 975.3 -- 93
2020-11-15 09:00:00 10.7 0 Calma 5 Nordeste 0 974.8 -- 93
2020-11-15 08:00:00 10.8 0 Calma -- -- 0 974.5 -- 93
2020-11-15 07:00:00 11 0 Calma 6 Noroeste 0 974.1 -- 93
2020-11-15 06:00:00 10.6 2 Oeste 8 Noroeste 0 974 -- 94
2020-11-15 05:00:00 10.6 4 Noroeste 7 Oeste 0.1 973.6 -- 93
2020-11-15 04:00:00 11.8 3 Nordeste 12 Oeste 0 974.1 -- 93
2020-11-15 03:00:00 11.6 0 Calma 5 Nordeste 0 974.2 -- 93
2020-11-15 02:00:00 12.4 0 Calma 3 Noroeste 0 974.4 -- 93
2020-11-15 01:00:00 12.9 0 Calma 6 Noroeste 0 974.7 -- 92
2020-11-15 00:00:00 13.4 0 Calma 8 Nordeste 0 974.8 -- 92
2020-11-14 23:00:00 14.4 4 Nordeste 8 Nordeste 0 974.8 -- 91
2020-11-14 22:00:00 14.5 4 Nordeste 6 Nordeste 0 974.9 -- 91
2020-11-14 21:00:00 14.6 0 Calma -- -- 0 974.6 -- 89
2020-11-14 20:00:00 15.4 0 Calma 5 Sudoeste 0 974.1 -- 85
2020-11-14 19:00:00 16.3 0 Calma 5 Sudoeste 0 973.6 -- 82
2020-11-14 18:00:00 16.8 0 Calma 7 Sudoeste 0 973.1 -- 80
2020-11-14 17:00:00 17 0 Calma 9 Sudoeste 0 972.7 -- 79
2020-11-14 16:00:00 17.4 2 Sudeste 12 Sudeste 0 972.3 -- 76
2020-11-14 15:00:00 17.3 4 Sudeste 14 Sudeste 0 972.4 -- 77
2020-11-14 14:00:00 16.4 3 Sudeste 15 Sudeste 0.3 972.9 -- 86
2020-11-14 13:00:00 15.3 5 Sudeste 18 Sur 0.4 973.5 -- 87
2020-11-14 12:00:00 15.3 8 Sur 24 Sur 0.1 973.8 -- 83
2020-11-14 11:00:00 14.9 8 Sur 19 Sudeste 0.3 973.7 -- 85
2020-11-14 10:00:00 15.7 8 Sudeste 17 Sur 0 973.4 -- 74
2020-11-14 09:00:00 15.8 5 Sudeste 13 Sudeste 0 972.6 -- 73
2020-11-14 08:00:00 15.6 0 Calma 16 Sur 0 972 -- 74
2020-11-14 07:00:00 15.6 5 Sur 16 Sudeste 0 971.8 -- 72
2020-11-14 06:00:00 15.4 4 Sur 19 Sudeste 0 971.5 -- 71
2020-11-14 05:00:00 15.3 3 Sudeste 12 Sudoeste 0 971.4 -- 73
2020-11-14 04:00:00 15.3 7 Sur 26 Sudeste 0 971.8 -- 74
2020-11-14 03:00:00 15.3 9 Sudeste 26 Sur 0 972.1 -- 76
2020-11-14 02:00:00 15.6 12 Sudeste 23 Sur 0 972.2 -- 76
2020-11-14 01:00:00 15.8 5 Sur 13 Sudeste 0 972.6 -- 71
2020-11-14 00:00:00 15.8 0 Calma 20 Sudeste 0 973 -- 74
2020-11-13 23:00:00 15.8 8 Sur 17 Sudeste 0 972.8 -- 73
2020-11-13 22:00:00 15.8 0 Calma 4 Oeste 0 972.7 -- 75
2020-11-13 21:00:00 16.1 0 Calma 6 Oeste 0 972.1 -- 74
2020-11-13 20:00:00 16.5 0 Calma 0 Calma 0 972 -- 71
2020-11-13 19:00:00 16.9 0 Calma 9 Sur 0 971.7 -- 70
2020-11-13 18:00:00 17.9 0 Calma 12 Sudeste 0 971 -- 66
2020-11-13 17:00:00 18.4 7 Sudeste 21 Sudeste 0 971.1 -- 62
2020-11-13 16:00:00 19.2 9 Sudeste 21 Sudeste 0 970.8 -- 58
2020-11-13 15:00:00 19.8 9 Sudeste 27 Sur 0 971 -- 57
2020-11-13 14:00:00 19.5 11 Sudeste 25 Sudeste 0 971.5 -- 56
2020-11-13 13:00:00 19.3 10 Sudeste 23 Este 0 971.9 -- 58
2020-11-13 12:00:00 18.2 8 Sudeste 23 Sudeste 0 972.5 -- 63
2020-11-13 11:00:00 17.2 12 Sudeste 27 Sudeste 0 972.6 -- 69
2020-11-13 10:00:00 15.9 8 Sudeste 18 Sudeste 0 972.5 -- 76
2020-11-13 09:00:00 14.4 3 Sur 17 Sur 0 971.9 -- 81
2020-11-13 08:00:00 14 0 Calma 10 Sur 0 971.3 -- 80
2020-11-13 07:00:00 14.1 0 Calma 21 Sur 0 970.9 -- 80
2020-11-13 06:00:00 14.5 6 Sur 18 Sur 0 970.7 -- 79
2020-11-13 05:00:00 14.7 7 Sur 24 Sur 0 970.6 -- 77
2020-11-13 04:00:00 14.5 8 Sur 28 Sur 0 970.9 -- 79
2020-11-13 03:00:00 14.7 4 Sur 27 Sur 0 970.9 -- 78
2020-11-13 02:00:00 14.6 8 Sur 28 Sur 0 971.1 -- 79
2020-11-13 01:00:00 14.9 9 Sur 30 Sur 0 971.3 -- 78
2020-11-13 00:00:00 14.8 14 Sur 35 Sur 0 971.5 -- 79
2020-11-12 23:00:00 15.1 10 Sur 37 Sudeste 0 971.5 -- 74
2020-11-12 22:00:00 15.1 12 Sur 36 Sudeste 0 971.2 -- 71
2020-11-12 21:00:00 15.3 19 Sudeste 37 Sudeste 0 970.9 -- 66
2020-11-12 20:00:00 15.5 15 Sudeste 35 Sudeste 0 970.7 -- 63
2020-11-12 19:00:00 15.4 6 Sur 31 Sur 0 970.7 -- 66
2020-11-12 18:00:00 15.7 6 Sur 26 Sur 0 970.6 -- 66
2020-11-12 17:00:00 16.5 8 Sur 26 Sur 0 970.5 -- 62
2020-11-12 16:00:00 17.3 6 Sur 26 Sur 0 970.3 -- 58
2020-11-12 15:00:00 18 12 Sur 36 Sur 0 970.3 -- 51
2020-11-12 14:00:00 17.7 13 Sudeste 28 Sur 0 970.7 -- 56
2020-11-12 13:00:00 17.4 15 Sudeste 38 Sudeste 0 971.7 -- 58
2020-11-12 12:00:00 16.9 18 Sudeste 39 Sudeste 0 972.5 -- 59
2020-11-12 11:00:00 15.3 13 Sudeste 36 Sudeste 0 972.7 -- 67
2020-11-12 10:00:00 14.2 6 Sudeste 30 Este 0 973.1 -- 76
2020-11-12 09:00:00 13.3 7 Sudeste 22 Sudeste 0 973 -- 82
2020-11-12 08:00:00 12.6 8 Este 19 Este 0 972.7 -- 86
2020-11-12 07:00:00 12.8 12 Este 20 Este 0 972.6 -- 87
2020-11-12 06:00:00 12.8 9 Este 17 Este 0 972.6 -- 87
2020-11-12 05:00:00 13.3 6 Este 22 Este 0 972.7 -- 80
2020-11-12 04:00:00 14.1 6 Sudeste 20 Sur 0 973.1 -- 74
2020-11-12 03:00:00 14.1 6 Sudeste 22 Sur 0 973.5 -- 75
2020-11-12 02:00:00 14.1 8 Sudeste 22 Sur 0 973.7 -- 79
2020-11-12 01:00:00 13.7 4 Sudeste 20 Sudeste 0 974.2 -- 83
2020-11-12 00:00:00 13.9 4 Sudeste 14 Sudeste 0 974.5 -- 81
2020-11-11 23:00:00 14.3 0 Calma 12 Sudeste 0 974.8 -- 77
2020-11-11 22:00:00 14.4 2 Sur 19 Este 0 974.7 -- 77
2020-11-11 21:00:00 14.3 4 Noroeste 28 Sudeste 0 974.3 -- 74
2020-11-11 20:00:00 14.8 9 Sur 30 Sur 0 973.9 -- 70
2020-11-11 19:00:00 14.8 4 Sur 14 Sur 0 973.7 -- 69
2020-11-11 18:00:00 15.3 8 Sur 22 Sudeste 0 973.8 -- 66
2020-11-11 17:00:00 16.8 8 Sudeste 28 Sudeste 0 973.5 -- 59
2020-11-11 16:00:00 17.6 13 Sudeste 33 Sudeste 0 973.2 -- 56
2020-11-11 15:00:00 17.7 9 Sudeste 35 Sudeste 0 973.3 -- 58
2020-11-11 14:00:00 17.5 11 Sudeste 36 Sur 0 974.1 -- 57
2020-11-11 13:00:00 17 16 Sur 38 Sudeste 0 974.7 -- 59
2020-11-11 12:00:00 16.5 16 Sudeste 37 Sudeste 0 975.4 -- 65
2020-11-11 11:00:00 16 15 Sudeste 37 Sudeste 0 975.5 -- 69
2020-11-11 10:00:00 15.1 15 Sudeste 38 Sudeste 0 975.5 -- 72
2020-11-11 09:00:00 14.2 17 Sudeste 35 Sudeste 0 975.4 -- 76
2020-11-11 08:00:00 13.3 7 Sudeste 24 Sudeste 0 975.1 -- 85
2020-11-11 07:00:00 13.4 3 Este 17 Sudeste 0 975 -- 85
2020-11-11 06:00:00 13.4 4 Nordeste 20 Nordeste 0 975.2 -- 85
2020-11-11 05:00:00 13.5 3 Nordeste 14 Este 0 975.5 -- 85
2020-11-11 04:00:00 13.8 4 Nordeste 22 Este 0 975.8 -- 85
2020-11-11 03:00:00 14.3 7 Sudeste 27 Sudeste 0 976.2 -- 80
2020-11-11 02:00:00 14.1 6 Sudeste 27 Sudeste 0 975.9 -- 83
2020-11-11 01:00:00 13.5 4 Nordeste 13 Nordeste 0 976.5 -- 84
2020-11-11 00:00:00 13.3 5 Nordeste 9 Nordeste 0 976.8 -- 80
2020-11-10 23:00:00 13.8 0 Calma 6 Sudoeste 0 977 -- 76
2020-11-10 22:00:00 14.3 0 Calma 12 Sudoeste 0 976.5 -- 71
2020-11-10 21:00:00 14.8 0 Calma 13 Sudeste 0 976.3 -- 69
2020-11-10 20:00:00 15.1 0 Calma 10 Sudoeste 0 976 -- 65
2020-11-10 19:00:00 15.9 3 Sur 10 Sudeste 0 975.7 -- 59
2020-11-10 18:00:00 17.3 4 Sur -- -- -- 975.5 -- 52
2020-11-10 17:00:00 19 4 Sur -- -- -- 975.1 -- 48
2020-11-10 16:00:00 19.3 8 Sudeste 16 Sudeste 0 975 -- 47
2020-11-10 15:00:00 19.5 4 Sudeste 15 Sudeste 0 974.8 -- 48
2020-11-10 14:00:00 17.9 0 Calma 8 Sudoeste 0 975.5 -- 57
2020-11-10 13:00:00 15.6 0 Calma 3 Este 0 976.2 -- 69
2020-11-10 12:00:00 12.4 0 Calma 0 Calma 0 976.8 -- 87
2020-11-10 11:00:00 9.3 0 Calma 0 Calma 0 977.2 -- 94
2020-11-10 10:00:00 7.6 0 Calma -- -- 0 977.2 -- 94
2020-11-10 09:00:00 6.1 0 Calma 0 Calma 0 976.8 -- 94
2020-11-10 08:00:00 6.3 0 Calma -- -- 0 976.2 -- 94
2020-11-10 07:00:00 6.5 0 Calma -- -- 0.1 975.7 -- 94
2020-11-10 06:00:00 7 0 Calma -- -- 0 975.8 -- 94
2020-11-10 05:00:00 6.8 0 Calma 2 Nordeste 0 975.5 -- 94
2020-11-10 04:00:00 7.5 0 Calma -- -- 0 975.6 -- 93
2020-11-10 03:00:00 7.6 0 Calma -- -- 0 975.7 -- 93
2020-11-10 02:00:00 9 0 Calma 3 Norte 0 975.7 -- 93
2020-11-10 01:00:00 9.9 0 Calma -- -- 0 975.8 -- 91
2020-11-10 00:00:00 10.3 0 Calma -- -- 0 975.9 -- 90
2020-11-09 23:00:00 10.8 0 Calma 2 Este 0 976.2 -- 89
2020-11-09 22:00:00 11.5 0 Calma 3 Nordeste 0 975.9 -- 87
2020-11-09 21:00:00 12.9 0 Calma 10 Noroeste 0 975.6 -- 82
2020-11-09 20:00:00 14.5 0 Calma 9 Noroeste 0 975.4 -- 74
2020-11-09 19:00:00 15.2 0 Calma 5 Noroeste 0 975 -- 69
2020-11-09 18:00:00 16.4 0 Calma 13 Noroeste 0 974.6 -- 67
2020-11-09 17:00:00 17.4 3 Nordeste 13 Nordeste 0 974.2 -- 62
2020-11-09 16:00:00 17.5 2 Noroeste 12 Noroeste 0 974 -- 63
2020-11-09 15:00:00 17.4 2 Nordeste 13 Nordeste 0 973.9 -- 64
2020-11-09 14:00:00 16.3 0 Calma 11 Nordeste 0 974.3 -- 70
2020-11-09 13:00:00 15.2 3 Sudeste 10 Sudeste 0 974.7 -- 80
2020-11-09 12:00:00 13.1 3 Nordeste 8 Sudeste 0 975.5 -- 88
2020-11-09 11:00:00 11.5 0 Calma 3 Nordeste 0.7 975.7 -- 92
2020-11-09 10:00:00 11.6 0 Calma 4 Nordeste 0.1 975.6 -- 86
2020-11-09 09:00:00 9.7 0 Calma 4 Sudeste 0 974.7 -- 92
2020-11-09 08:00:00 7.6 0 Calma 0 Calma 0 973.9 -- 92
2020-11-09 07:00:00 8.6 0 Calma 0 Calma 0 973 -- 91
2020-11-09 06:00:00 8.7 0 Calma 9 Sudeste 0 973.1 -- 91
2020-11-09 05:00:00 9.2 0 Calma 3 Sudeste 0 972.9 -- 90
2020-11-09 04:00:00 10.1 0 Calma 5 Nordeste 0 973 -- 89
2020-11-09 03:00:00 10.3 0 Calma -- -- 0 973.1 -- 87
2020-11-09 02:00:00 11.2 0 Calma 4 Nordeste 0 973.4 -- 85
2020-11-09 01:00:00 11.6 0 Calma 0 Calma 0 973.7 -- 81
2020-11-09 00:00:00 12.9 0 Calma 9 Noroeste 0 973.9 -- 75
2020-11-08 23:00:00 13.7 4 Noroeste 9 Noroeste 0 973.8 -- 71
2020-11-08 22:00:00 14.1 0 Calma 5 Noroeste 0 973.6 -- 68
2020-11-08 21:00:00 14.6 0 Calma 12 Sudeste 0 973.6 -- 63
2020-11-08 20:00:00 16 6 Sur 13 Sudoeste 0 973.4 -- 56
2020-11-08 19:00:00 16.3 4 Sudeste 25 Sudeste 0 973.2 -- 56
2020-11-08 18:00:00 17.3 12 Sudeste 27 Sudeste 0 972.8 -- 52
2020-11-08 17:00:00 18.7 12 Sudeste 28 Sudeste 0 972.6 -- 50
2020-11-08 16:00:00 19.1 15 Sudeste 28 Sudeste 0 972.6 -- 47
2020-11-08 15:00:00 19.4 11 Sudeste 30 Sudeste 0 972.8 -- 47
2020-11-08 14:00:00 19.4 8 Sudeste 25 Sudeste 0 973.2 -- 50
2020-11-08 13:00:00 19.1 4 Sur 19 Sudeste 0 974 -- 52
2020-11-08 12:00:00 16.2 0 Calma 3 Sudeste 0 974.7 -- 74
2020-11-08 11:00:00 12 0 Calma 5 Sudeste 0 975.1 -- 92
2020-11-08 10:00:00 9.8 0 Calma 7 Nordeste 0 975 -- 94
2020-11-08 09:00:00 8.1 0 Calma 6 Noroeste 0 975.2 -- 94
2020-11-08 08:00:00 7.4 0 Calma 6 Norte 0 974.8 -- 94
2020-11-08 07:00:00 8 0 Calma 6 Noroeste 0 974.4 -- 94
2020-11-08 06:00:00 8.4 0 Calma 8 Noroeste 0 974.4 -- 94
2020-11-08 05:00:00 8.5 0 Calma 7 Noroeste 0 974.1 -- 94
2020-11-08 04:00:00 9.6 0 Calma 4 Nordeste 0 974.3 -- 94
2020-11-08 03:00:00 10.7 0 Calma 3 Oeste 0 974.6 -- 93
2020-11-08 02:00:00 10.8 0 Calma 2 Nordeste 0 974.6 -- 93
2020-11-08 01:00:00 11.5 0 Calma 0 Calma 0 975.1 -- 91
2020-11-08 00:00:00 12.4 0 Calma 4 Noroeste 0 975.4 -- 88
2020-11-07 23:00:00 13.3 0 Calma 0 Calma 0 975.4 -- 86
2020-11-07 22:00:00 14.1 0 Calma 6 Nordeste 0 975.5 -- 83
2020-11-07 21:00:00 15.3 2 Nordeste 8 Nordeste 0 975 -- 77
2020-11-07 20:00:00 15.7 3 Nordeste 6 Nordeste 0 974.9 -- 75
2020-11-07 19:00:00 16.5 0 Calma 8 Noroeste 0 974.5 -- 73
2020-11-07 18:00:00 18 2 Noroeste -- -- 0 973.7 -- 57
2020-11-07 17:00:00 18.9 5 Oeste 17 Noroeste 0 973.2 -- 52
2020-11-07 16:00:00 19.1 7 Oeste 14 Sudoeste 0 973.3 -- 52
2020-11-07 15:00:00 18.9 8 Noroeste 18 Oeste 0 973 -- 50
2020-11-07 14:00:00 19.8 5 Sudoeste 23 Sudoeste 0 973.2 -- 47
2020-11-07 13:00:00 18.7 10 Sudoeste 29 Sudoeste 0 973.4 -- 49
2020-11-07 12:00:00 18.3 3 Sudoeste 27 Sudoeste 0 973.4 -- 55
2020-11-07 11:00:00 17.1 8 Sudoeste 21 Sudoeste 0 972.9 -- 57
2020-11-07 10:00:00 13.7 0 Calma 8 Nordeste 0 972.4 -- 88
2020-11-07 09:00:00 13 2 Oeste 21 Noroeste 0.3 970.8 -- 92
2020-11-07 08:00:00 14.3 0 Calma 11 Sudoeste 0 969.3 -- 83
2020-11-07 07:00:00 14.2 0 Calma 17 Sudeste 0 968.2 -- 86
2020-11-07 06:00:00 13.9 0 Calma 25 Sur 0.8 967.4 -- 88
2020-11-07 05:00:00 14.4 6 Sur 20 Sudeste 0.1 966.6 -- 85
2020-11-07 04:00:00 14.4 6 Sudeste 24 Sudeste 0.2 966.7 -- 83
2020-11-07 03:00:00 14.4 8 Sudeste 21 Sudeste 0.3 966.4 -- 81
2020-11-07 02:00:00 15.8 6 Sur 25 Sudeste 0 966.7 -- 69
2020-11-07 01:00:00 15.6 8 Sur 32 Sudeste 0 966.4 -- 71
2020-11-07 00:00:00 15.7 14 Sudeste 38 Sudeste 0.1 966.3 -- 71
2020-11-06 23:00:00 14.6 6 Sudeste 20 Sudoeste 0.8 967.4 -- 84
2020-11-06 22:00:00 16.1 0 Calma 17 Sudoeste 0.4 967.4 -- 70
2020-11-06 21:00:00 17.5 6 Sudoeste 26 Sudoeste 0.4 967.3 -- 57
2020-11-06 20:00:00 19.6 4 Sudoeste 13 Sudoeste 0 966.2 -- 47
2020-11-06 19:00:00 20.3 0 Calma 19 Sudoeste 0 965.1 -- 43
2020-11-06 18:00:00 21.5 6 Sudoeste 21 Sudoeste 0 964.6 -- 38
2020-11-06 17:00:00 22.6 7 Sudoeste 31 Sudoeste 0 963.7 -- 35
2020-11-06 16:00:00 24 8 Sudoeste 32 Sudeste 0 963.6 -- 33
2020-11-06 15:00:00 24.9 19 Sudeste 43 Sudeste 0 962.6 -- 30
2020-11-06 14:00:00 25 18 Sudeste 46 Sudeste 0 962.7 -- 32
2020-11-06 13:00:00 24 24 Sudeste 49 Sudeste 0 963.2 -- 34
2020-11-06 12:00:00 24.1 15 Sudeste 41 Sudeste 0 963.9 -- 34
2020-11-06 11:00:00 22.2 10 Sudeste 36 Sudeste 0 964.2 0.2 41
2020-11-06 10:00:00 20.5 14 Sudeste 38 Sudeste 0 964.3 -- 44
2020-11-06 09:00:00 19.1 10 Sudeste 30 Sudeste 0 963.9 -- 46
2020-11-06 08:00:00 19 4 Sur 39 Sudeste 0 964 -- 44
2020-11-06 07:00:00 19.3 11 Sudeste 33 Sudeste 0 964 -- 42
2020-11-06 06:00:00 16.9 0 Calma 18 Noroeste 0 963.9 -- 52
2020-11-06 05:00:00 14.3 3 Noroeste 13 Noroeste 0 964.3 -- 69
2020-11-06 04:00:00 14.8 4 Nordeste 12 Norte 0 964.9 -- 64
2020-11-06 03:00:00 13.3 7 Nordeste 15 Noroeste 0 965.3 -- 75
2020-11-06 02:00:00 15.5 2 Noroeste 9 Norte 0 965.5 -- 62
2020-11-06 01:00:00 16.4 0 Calma 13 Oeste 0 965.7 -- 58
2020-11-06 00:00:00 17 0 Calma 13 Sudeste 0 965.8 -- 56
2020-11-05 23:00:00 16.5 0 Calma 14 Sudeste 0 966.3 -- 57
2020-11-05 22:00:00 17.7 4 Sudeste 20 Sudeste 0 966.2 -- 53
2020-11-05 21:00:00 17.5 6 Sudeste 21 Sudeste 0 966.1 -- 53
2020-11-05 20:00:00 16.9 5 Nordeste 20 Nordeste 0 965.8 -- 58
2020-11-05 19:00:00 17 0 Calma 11 Noroeste 0 965.6 -- 59
2020-11-05 18:00:00 17.3 0 Calma 19 Sudeste 0 965.1 -- 62
2020-11-05 17:00:00 18 7 Sudeste 35 Sudeste 0 965.4 -- 61
2020-11-05 16:00:00 18.4 13 Sudeste 40 Sudeste 0 965.4 -- 61
2020-11-05 15:00:00 18.7 17 Sudeste 42 Sudeste 0 965.3 -- 60
2020-11-05 14:00:00 18 10 Sudeste 31 Sudeste 0 964.5 -- 69
2020-11-05 13:00:00 17.2 9 Sudeste 23 Sudeste 0.2 964.7 -- 73
2020-11-05 12:00:00 17.2 10 Sudeste 52 Sudeste 0 965.2 -- 70
2020-11-05 11:00:00 17.4 19 Sudeste 45 Sudeste 0.1 965 -- 68
2020-11-05 10:00:00 16.3 13 Sudeste 33 Sudeste 0 965.2 -- 74
2020-11-05 09:00:00 15.5 10 Sudeste 42 Sudeste 0.1 964.9 -- 83
2020-11-05 08:00:00 14.3 4 Sur 35 Sudeste 14.2 963.6 -- 89
2020-11-05 07:00:00 13.9 6 Sudeste 40 Sudeste 16.8 963.2 -- 89
2020-11-05 06:00:00 14.9 17 Sudeste 47 Sudeste 6.5 963.1 -- 79
2020-11-05 05:00:00 14.2 10 Sur 60 Sudeste 8 962.5 -- 86
2020-11-05 04:00:00 14.7 19 Sudeste 47 Sudeste 0.9 961.8 -- 76
2020-11-05 03:00:00 14.5 19 Sudeste 49 Sudeste 3.4 962.6 -- 83
2020-11-05 02:00:00 14.4 12 Sudeste 58 Sudeste 2 962.4 -- 82
2020-11-05 01:00:00 14.7 22 Sudeste 52 Sudeste 3.4 963.3 -- 87
2020-11-05 00:00:00 15.9 12 Sudeste 28 Nordeste 0 963.2 -- 73
2020-11-04 23:00:00 14.8 11 Sudeste 41 Sudeste 0 964 -- 75
2020-11-04 22:00:00 15.1 21 Sudeste 49 Sudeste 0 964.9 -- 79
2020-11-04 21:00:00 14.7 15 Sudeste 40 Sudeste 0 964.6 -- 81
2020-11-04 20:00:00 14.2 14 Sudeste 37 Sudeste 0 964.6 -- 79
2020-11-04 19:00:00 14.2 11 Sudeste 25 Sudeste 0.1 965.2 -- 80
2020-11-04 18:00:00 13.4 0 Calma 13 Sudoeste 3 965.5 -- 92
2020-11-04 17:00:00 14 3 Sudoeste 21 Sudeste 1.3 966.1 -- 89
2020-11-04 16:00:00 15.8 8 Sur 26 Sudoeste 0 965.8 -- 73
2020-11-04 15:00:00 16.8 11 Sur 32 Sudeste 0 966 -- 67
2020-11-04 14:00:00 17.3 18 Sudeste 38 Sudeste 0 966.9 -- 67
2020-11-04 13:00:00 17.2 14 Sudeste 35 Sudeste 0 967.9 -- 66
2020-11-04 12:00:00 16.5 16 Sudeste 31 Sudeste 0 968.7 -- 73
2020-11-04 11:00:00 15.4 13 Sudeste 27 Sudeste 0.1 969 -0.9 82
2020-11-04 10:00:00 14.8 7 Sudeste 21 Sudeste 0.3 969.7 -- 85
2020-11-04 09:00:00 14.4 12 Sudeste 30 Sudeste 0.3 970 -- 83
2020-11-04 08:00:00 14.9 7 Sur 42 Sudeste 0 969.9 -- 79
2020-11-04 07:00:00 14.4 9 Sudeste 34 Sudeste 0 969.7 -- 81
2020-11-04 06:00:00 14.8 14 Sudeste 35 Sudeste 0 970.6 -- 79
2020-11-04 05:00:00 14.4 11 Sudeste 25 Sudeste 0 971.2 -- 79
2020-11-04 04:00:00 14.4 9 Sudeste 31 Sudeste 0 971.8 -- 76
2020-11-04 03:00:00 14.2 17 Sudeste 36 Sudeste 0 971.9 -- 76
2020-11-04 02:00:00 14.3 16 Sudeste 32 Sudeste 0 972.5 -- 74
2020-11-04 01:00:00 15.3 4 Sur 25 Sudeste 0 973.2 -- 68
2020-11-04 00:00:00 15.4 0 Calma 9 Sudoeste 0 973.5 -- 70
2020-11-03 23:00:00 16.1 0 Calma 4 Sudoeste 0 973.9 -- 68
2020-11-03 22:00:00 16.8 0 Calma 4 Noroeste 0 973.9 -- 64
2020-11-03 21:00:00 17.5 0 Calma 3 Noroeste 0 974 -- 60
2020-11-03 20:00:00 18.3 0 Calma 3 Sudoeste 0 973.9 -- 56
2020-11-03 19:00:00 19.7 0 Calma 7 Noroeste 0 973.6 -- 52
2020-11-03 18:00:00 21.6 3 Noroeste 13 Noroeste 0 973.3 -- 46
2020-11-03 17:00:00 22.9 0 Calma 17 Noroeste 0 972.8 -- 41
2020-11-03 16:00:00 24 2 Norte 15 Noroeste 0 972.4 -- 39
2020-11-03 15:00:00 24.2 2 Noroeste 11 Noroeste 0 972.5 -- 36
2020-11-03 14:00:00 23.5 0 Calma 10 Nordeste 0 973 -- 36
2020-11-03 13:00:00 22.8 0 Calma 8 Sudoeste 0 973.8 -- 40
2020-11-03 12:00:00 20.5 0 Calma 5 Sudeste 0 974.4 -- 46
2020-11-03 11:00:00 16.3 0 Calma 5 Sudeste 0 974.6 -- 58
2020-11-03 10:00:00 12.2 0 Calma -- -- -- 974.7 -- 69
2020-11-03 09:00:00 10.3 0 Calma 5 Noroeste 0 974.6 -- 79
2020-11-03 08:00:00 7.8 0 Calma 2 Sudeste 0 974.1 -- 82
2020-11-03 07:00:00 8.4 0 Calma 4 Nordeste 0 974 -- 80
2020-11-03 06:00:00 8.7 0 Calma 5 Nordeste 0 974.1 -- 77
2020-11-03 05:00:00 8.7 0 Calma 5 Oeste 0 973.7 -- 77
2020-11-03 04:00:00 9.6 0 Calma 6 Noroeste 0 973.8 -- 73
2020-11-03 03:00:00 10.6 0 Calma 8 Noroeste 0 974 -- 69
2020-11-03 02:00:00 11.1 2 Nordeste 6 Nordeste 0 973.7 -- 66
2020-11-03 01:00:00 12.1 0 Calma 5 Nordeste 0 974.1 -- 60
2020-11-03 00:00:00 13.2 0 Calma 0 Calma 0 974.3 -- 53
2020-11-02 23:00:00 14.4 0 Calma 3 Nordeste 0 974.4 -- 47
2020-11-02 22:00:00 16.2 0 Calma 3 Noroeste 0 974.4 -- 42
2020-11-02 21:00:00 18.2 0 Calma 6 Sudoeste 0 974.2 -- 38
2020-11-02 20:00:00 18.9 0 Calma 6 Sudoeste 0 973.9 -- 34
2020-11-02 19:00:00 20.8 0 Calma 11 Sudeste 0 973.3 -- 32
2020-11-02 18:00:00 23 0 Calma 17 Sudeste 0 972.8 -- 28
2020-11-02 17:00:00 25 7 Sudeste 19 Sudeste 0 972.6 -- 27
2020-11-02 16:00:00 25.5 9 Sudeste 19 Sudeste 0 972.6 -- 27
2020-11-02 15:00:00 25.9 8 Sudeste 22 Sudeste 0 972.8 -- 27
2020-11-02 14:00:00 25.7 10 Sudeste 27 Sudeste 0 973.5 -- 28
2020-11-02 13:00:00 25 13 Sudeste 27 Sudeste 0 974.1 -- 28
2020-11-02 12:00:00 23.1 0 Calma 10 Sudeste 0 974.8 -- 38
2020-11-02 11:00:00 17.9 0 Calma 4 Este 0 975.1 -- 56
2020-11-02 10:00:00 13.7 0 Calma 0 Calma 0 975.1 -- 69
2020-11-02 09:00:00 9.6 0 Calma -- -- 0 974.8 -- 82
2020-11-02 08:00:00 7.7 0 Calma 3 Noroeste 0 974.2 -- 88
2020-11-02 07:00:00 8.3 0 Calma 3 Nordeste 0 974.2 -- 87
2020-11-02 06:00:00 9.2 0 Calma 0 Calma 0 973.9 -- 82
2020-11-02 05:00:00 9.8 0 Calma -- -- 0 973.9 -- 80
2020-11-02 04:00:00 10.5 0 Calma 6 Noroeste 0 974 -- 77
2020-11-02 03:00:00 10.9 0 Calma -- -- 0 974.2 -- 74
2020-11-02 02:00:00 11.7 0 Calma -- -- 0 974.4 -- 70
2020-11-02 01:00:00 12.6 0 Calma 0 Calma 0 974.7 -- 65
2020-11-02 00:00:00 13.7 0 Calma 0 Calma 0 975.1 -- 59